Time;durP1;ratioP1;P1;durP2;ratioP2;P2;SDS_P1;SDS_P2;PMS_P1;PMS_P2;Temp;Humidity;BMP_temperature;BMP_pressure;BME280_temperature;BME280_humidity;BME280_pressure;Samples;Min_cycle;Max_cycle;Signal;HPM_P1;HPM_P2
2023/04/27 00:02:10;;;;;;;8.83;5.30;;;8.30;37.80;;;;;;5039146;28;45954;-73
2023/04/27 00:04:36;;;;;;;9.60;5.10;;;8.30;37.90;;;;;;5039861;28;46487;-73
2023/04/27 00:07:02;;;;;;;11.30;5.37;;;8.30;38.00;;;;;;5037605;28;46373;-73
2023/04/27 00:09:28;;;;;;;10.00;5.60;;;8.20;37.80;;;;;;5038696;28;46445;-73
2023/04/27 00:11:53;;;;;;;8.63;5.77;;;8.30;37.90;;;;;;5039045;28;46477;-73
2023/04/27 00:14:19;;;;;;;9.63;4.87;;;8.30;38.00;;;;;;5035851;28;46195;-73
2023/04/27 00:16:46;;;;;;;7.27;5.00;;;8.20;38.60;;;;;;5039136;28;45755;-72
2023/04/27 00:19:12;;;;;;;10.30;5.17;;;8.20;39.00;;;;;;5038063;28;46400;-72
2023/04/27 00:21:38;;;;;;;8.63;5.33;;;8.20;39.40;;;;;;5039565;28;46321;-72
2023/04/27 00:24:04;;;;;;;9.20;5.13;;;8.10;39.80;;;;;;5041078;28;46359;-72
2023/04/27 00:26:30;;;;;;;8.20;4.77;;;8.10;40.20;;;;;;5040405;28;46463;-73
2023/04/27 00:28:55;;;;;;;9.33;4.47;;;8.00;40.50;;;;;;5041406;28;45871;-72
2023/04/27 00:31:21;;;;;;;10.70;4.73;;;8.10;40.80;;;;;;5040165;28;46530;-72
2023/04/27 00:33:47;;;;;;;6.63;4.63;;;8.00;40.80;;;;;;5041488;28;46377;-73
2023/04/27 00:36:12;;;;;;;11.60;5.00;;;8.00;40.90;;;;;;5040999;28;45898;-72
2023/04/27 00:38:38;;;;;;;7.00;4.53;;;8.00;41.00;;;;;;5041341;28;46409;-72
2023/04/27 00:41:06;;;;;;;8.93;5.77;;;8.00;41.30;;;;;;5040813;28;46361;-73
2023/04/27 00:43:39;;;;;;;6.60;4.90;;;7.90;41.50;;;;;;5036808;28;46535;-73
2023/04/27 00:46:05;;;;;;;8.57;5.20;;;7.90;41.70;;;;;;5038795;28;46522;-73
2023/04/27 00:48:31;;;;;;;7.00;4.90;;;7.90;42.00;;;;;;5041982;28;46409;-72
2023/04/27 00:50:56;;;;;;;12.20;5.40;;;7.80;42.10;;;;;;5041862;28;45892;-71
2023/04/27 00:53:22;;;;;;;8.17;4.80;;;7.80;42.40;;;;;;5041572;28;46540;-74
2023/04/27 00:55:48;;;;;;;10.57;5.00;;;7.80;42.80;;;;;;5041941;28;46384;-73
2023/04/27 00:58:13;;;;;;;8.40;4.13;;;7.80;42.90;;;;;;5032861;28;46497;-73
2023/04/27 01:00:39;;;;;;;9.53;5.37;;;7.70;43.10;;;;;;5041644;28;46567;-73
2023/04/27 01:03:06;;;;;;;10.70;5.50;;;7.70;43.30;;;;;;5041280;28;46383;-72
2023/04/27 01:05:33;;;;;;;9.63;6.10;;;7.70;43.30;;;;;;5040882;28;46518;-73
2023/04/27 01:07:59;;;;;;;10.40;6.23;;;7.60;43.70;;;;;;5038202;28;46321;-72
2023/04/27 01:10:25;;;;;;;17.33;6.57;;;7.40;44.60;;;;;;5040524;28;46258;-73
2023/04/27 01:12:51;;;;;;;10.37;6.40;;;7.30;45.20;;;;;;5041114;28;46732;-72
2023/04/27 01:15:16;;;;;;;12.10;6.67;;;7.20;45.30;;;;;;5042969;28;45786;-72
2023/04/27 01:17:42;;;;;;;9.70;5.40;;;7.20;45.80;;;;;;5040858;28;46282;-73
2023/04/27 01:20:08;;;;;;;18.90;6.87;;;7.10;45.90;;;;;;5036604;28;46639;-73
2023/04/27 01:22:34;;;;;;;11.70;6.30;;;7.10;46.30;;;;;;5040296;28;46318;-73
2023/04/27 01:25:00;;;;;;;10.70;6.67;;;7.10;46.20;;;;;;5038527;28;46361;-73
2023/04/27 01:27:26;;;;;;;14.43;6.33;;;7.00;46.10;;;;;;5040741;28;46386;-73
2023/04/27 01:29:51;;;;;;;11.73;6.13;;;7.00;46.10;;;;;;5039091;28;46493;-73
2023/04/27 01:32:17;;;;;;;10.97;6.60;;;7.00;46.10;;;;;;5038473;28;46325;-73
2023/04/27 01:34:42;;;;;;;11.23;5.10;;;7.00;46.20;;;;;;5042258;28;46377;-73
2023/04/27 01:37:08;;;;;;;16.43;6.83;;;6.90;46.10;;;;;;5036761;28;46517;-73
2023/04/27 01:39:34;;;;;;;8.27;5.43;;;6.90;46.40;;;;;;5039895;28;46328;-71
2023/04/27 01:42:02;;;;;;;8.23;6.03;;;6.80;46.40;;;;;;5037388;28;46269;-72
2023/04/27 01:44:28;;;;;;;10.27;6.60;;;6.80;46.50;;;;;;5037664;28;46389;-72
2023/04/27 01:46:54;;;;;;;10.47;5.90;;;6.80;46.40;;;;;;5037139;28;46423;-72
2023/04/27 01:49:19;;;;;;;12.93;6.77;;;6.80;46.10;;;;;;5039723;28;46443;-72
2023/04/27 01:51:45;;;;;;;9.60;5.40;;;6.90;47.20;;;;;;5039296;28;46409;-72
2023/04/27 01:54:10;;;;;;;9.60;6.13;;;6.90;46.00;;;;;;5039111;28;46219;-74
2023/04/27 01:56:36;;;;;;;10.40;6.10;;;6.80;46.10;;;;;;5043799;28;46481;-73
2023/04/27 01:59:02;;;;;;;16.03;5.60;;;6.70;46.60;;;;;;5047476;28;46329;-73
2023/04/27 02:01:27;;;;;;;10.40;6.37;;;6.60;47.00;;;;;;5039426;28;47163;-73
2023/04/27 02:03:53;;;;;;;9.30;5.03;;;6.40;47.20;;;;;;5038892;28;45832;-73
2023/04/27 02:06:18;;;;;;;7.03;5.30;;;6.30;47.60;;;;;;5040475;28;46286;-73
2023/04/27 02:08:44;;;;;;;7.37;4.63;;;6.30;47.80;;;;;;5036312;28;46582;-73
2023/04/27 02:11:09;;;;;;;15.20;4.83;;;6.20;47.90;;;;;;5036365;28;46313;-74
2023/04/27 02:13:35;;;;;;;8.67;4.80;;;6.20;48.00;;;;;;5039127;28;45827;-73
2023/04/27 02:16:03;;;;;;;10.20;4.83;;;6.10;48.20;;;;;;5037300;28;46406;-74
2023/04/27 02:18:28;;;;;;;6.90;4.77;;;6.00;48.50;;;;;;5039243;28;46150;-73
2023/04/27 02:20:54;;;;;;;6.03;4.33;;;5.90;49.10;;;;;;5037872;28;46371;-73
2023/04/27 02:23:19;;;;;;;6.13;3.90;;;5.80;49.00;;;;;;5037996;28;46369;-74
2023/04/27 02:25:45;;;;;;;7.63;4.60;;;5.70;49.00;;;;;;5040093;28;46451;-73
2023/04/27 02:28:12;;;;;;;6.97;4.47;;;5.60;48.90;;;;;;5039528;28;46167;-73
2023/04/27 02:30:39;;;;;;;8.00;5.30;;;5.50;49.40;;;;;;5038017;28;46658;-72
2023/04/27 02:33:04;;;;;;;8.87;4.90;;;5.50;49.60;;;;;;5036272;28;46475;-73
2023/04/27 02:35:32;;;;;;;8.67;4.60;;;5.50;49.50;;;;;;5038433;28;45879;-73
2023/04/27 02:37:57;;;;;;;8.57;4.70;;;5.60;49.30;;;;;;5037423;28;46627;-73
2023/04/27 02:40:23;;;;;;;8.00;4.43;;;5.60;48.80;;;;;;5039757;28;47089;-74
2023/04/27 02:42:49;;;;;;;6.73;4.10;;;5.60;48.80;;;;;;5038205;28;46306;-74
2023/04/27 02:45:15;;;;;;;8.60;4.10;;;5.60;48.90;;;;;;5037700;28;46382;-73
2023/04/27 02:47:41;;;;;;;8.50;4.50;;;5.50;49.40;;;;;;5039262;28;46519;-73
2023/04/27 02:50:07;;;;;;;10.67;5.10;;;5.40;49.80;;;;;;5036872;28;46962;-72
2023/04/27 02:52:32;;;;;;;6.40;4.80;;;5.30;50.00;;;;;;5039729;28;46300;-72
2023/04/27 02:54:58;;;;;;;7.37;5.03;;;5.20;50.30;;;;;;5038076;28;46472;-72
2023/04/27 02:57:23;;;;;;;8.60;5.10;;;5.10;50.80;;;;;;5041823;28;46294;-72
2023/04/27 02:59:49;;;;;;;11.97;5.40;;;5.00;51.10;;;;;;5041240;28;46404;-72
2023/04/27 03:02:15;;;;;;;8.83;5.50;;;4.90;51.20;;;;;;5039296;28;45845;-72
2023/04/27 03:04:42;;;;;;;6.10;4.40;;;4.90;51.40;;;;;;5037703;28;46336;-72
2023/04/27 03:07:08;;;;;;;7.90;4.20;;;4.90;51.60;;;;;;5038405;28;45938;-72
2023/04/27 03:09:33;;;;;;;5.87;4.30;;;4.80;51.60;;;;;;5040346;28;46421;-72
2023/04/27 03:11:59;;;;;;;7.37;4.43;;;4.70;51.70;;;;;;5035177;28;45838;-71
2023/04/27 03:14:24;;;;;;;6.80;4.90;;;4.70;51.80;;;;;;5035618;28;46438;-72
2023/04/27 03:16:50;;;;;;;10.77;5.87;;;4.70;51.90;;;;;;5040028;28;46608;-72
2023/04/27 03:19:16;;;;;;;12.80;6.00;;;4.60;51.80;;;;;;5037471;28;46388;-72
2023/04/27 03:21:41;;;;;;;9.50;5.43;;;4.60;51.90;;;;;;5037512;28;46444;-72
2023/04/27 03:24:07;;;;;;;9.27;5.30;;;4.60;51.90;;;;;;5033189;28;46397;-72
2023/04/27 03:26:33;;;;;;;9.77;6.83;;;4.60;51.90;;;;;;5036831;28;46428;-71
2023/04/27 03:28:58;;;;;;;12.80;7.00;;;4.60;51.90;;;;;;5036894;28;46309;-72
2023/04/27 03:31:24;;;;;;;19.60;7.40;;;4.60;52.00;;;;;;5037604;28;46540;-72
2023/04/27 03:33:49;;;;;;;11.97;7.47;;;4.60;52.30;;;;;;5039278;28;46604;-72
2023/04/27 03:36:15;;;;;;;12.53;7.40;;;4.60;52.30;;;;;;5037408;28;46483;-72
2023/04/27 03:38:41;;;;;;;12.33;6.47;;;4.60;52.30;;;;;;5037668;28;46589;-72
2023/04/27 03:41:06;;;;;;;9.23;6.10;;;4.60;52.30;;;;;;5039131;28;46342;-72
2023/04/27 03:43:32;;;;;;;9.37;5.87;;;4.70;52.40;;;;;;5037163;28;46444;-72
2023/04/27 03:45:57;;;;;;;19.03;6.27;;;4.60;52.20;;;;;;5037324;28;46715;-71
2023/04/27 03:48:23;;;;;;;12.47;6.57;;;4.70;52.20;;;;;;5036909;28;46700;-72
2023/04/27 03:50:48;;;;;;;17.07;8.07;;;4.70;51.90;;;;;;5039121;28;46282;-72
2023/04/27 03:53:14;;;;;;;16.90;8.93;;;4.80;51.80;;;;;;5034961;28;46370;-72
2023/04/27 03:55:41;;;;;;;12.23;8.63;;;4.80;51.70;;;;;;5038742;28;46390;-72
2023/04/27 03:58:09;;;;;;;12.90;8.30;;;4.80;51.60;;;;;;5038448;28;48090;-72
2023/04/27 04:00:35;;;;;;;10.10;6.30;;;4.80;51.60;;;;;;5040132;28;46408;-72
2023/04/27 04:03:01;;;;;;;11.00;6.70;;;4.80;51.80;;;;;;5038203;28;46220;-72
2023/04/27 04:05:27;;;;;;;8.20;5.00;;;4.80;51.70;;;;;;5038403;28;46374;-69
2023/04/27 04:07:52;;;;;;;11.50;5.07;;;4.80;51.70;;;;;;5038247;28;47301;-72
2023/04/27 04:10:18;;;;;;;8.40;5.70;;;4.70;51.90;;;;;;5038068;28;46388;-72
2023/04/27 04:12:44;;;;;;;22.03;6.83;;;4.70;52.10;;;;;;5038532;28;46374;-72
2023/04/27 04:15:10;;;;;;;10.93;7.10;;;4.70;52.20;;;;;;5037457;28;45839;-72
2023/04/27 04:17:35;;;;;;;15.37;7.97;;;4.80;52.10;;;;;;5036368;28;46382;-72
2023/04/27 04:20:05;;;;;;;10.67;7.00;;;4.90;51.90;;;;;;5039479;28;46466;-72
2023/04/27 04:22:31;;;;;;;9.90;6.83;;;4.90;51.70;;;;;;5040660;28;46392;-71
2023/04/27 04:24:56;;;;;;;15.30;5.70;;;5.00;51.60;;;;;;5041170;28;46314;-72
2023/04/27 04:27:22;;;;;;;10.93;5.60;;;5.00;51.50;;;;;;5037751;28;46063;-72
2023/04/27 04:29:48;;;;;;;4.93;3.93;;;5.10;51.40;;;;;;5037641;28;46368;-72
2023/04/27 04:32:16;;;;;;;4.43;3.40;;;5.20;51.20;;;;;;5037636;28;46742;-72
2023/04/27 04:34:42;;;;;;;6.80;4.60;;;5.20;51.10;;;;;;5033363;28;45909;-72
2023/04/27 04:37:07;;;;;;;8.00;6.07;;;5.50;50.90;;;;;;5038005;28;46453;-72
2023/04/27 04:39:33;;;;;;;9.73;6.40;;;5.50;50.50;;;;;;5038533;28;47243;-72
2023/04/27 04:41:59;;;;;;;8.87;5.67;;;5.70;50.00;;;;;;5039611;28;46743;-72
2023/04/27 04:44:24;;;;;;;7.00;4.80;;;5.80;49.70;;;;;;5036578;28;46309;-72
2023/04/27 04:46:50;;;;;;;7.50;4.87;;;5.90;49.40;;;;;;5038164;28;46470;-72
2023/04/27 04:49:16;;;;;;;7.63;4.90;;;6.00;49.20;;;;;;5034297;28;45878;-71
2023/04/27 04:51:43;;;;;;;8.97;4.80;;;6.10;49.30;;;;;;5037921;28;46343;-72
2023/04/27 04:54:09;;;;;;;7.40;4.50;;;6.20;49.40;;;;;;5036314;28;46439;-72
2023/04/27 04:56:35;;;;;;;8.37;5.30;;;6.20;49.40;;;;;;5038363;28;46463;-72
2023/04/27 04:59:01;;;;;;;7.87;5.23;;;6.30;49.50;;;;;;5037425;28;46441;-72
2023/04/27 05:01:26;;;;;;;8.20;4.70;;;6.40;49.50;;;;;;5034025;28;46468;-72
2023/04/27 05:03:52;;;;;;;13.80;5.37;;;6.40;49.50;;;;;;5037811;28;45807;-72
2023/04/27 05:06:17;;;;;;;11.20;5.07;;;6.50;49.60;;;;;;5034174;28;46425;-72
2023/04/27 05:08:43;;;;;;;10.33;5.00;;;6.60;49.70;;;;;;5038283;28;46385;-72
2023/04/27 05:11:10;;;;;;;10.63;5.43;;;6.70;49.70;;;;;;5038529;28;46307;-72
2023/04/27 05:13:37;;;;;;;7.93;5.37;;;6.80;49.20;;;;;;5042161;28;46419;-72
2023/04/27 05:16:04;;;;;;;10.63;5.90;;;7.00;48.80;;;;;;5041213;28;46472;-71
2023/04/27 05:18:30;;;;;;;9.87;5.67;;;7.20;48.40;;;;;;5038506;28;46440;-72
2023/04/27 05:20:56;;;;;;;8.13;5.60;;;7.30;48.10;;;;;;5040284;28;46345;-72
2023/04/27 05:23:21;;;;;;;9.30;5.30;;;7.40;48.10;;;;;;5041429;28;46396;-72
2023/04/27 05:25:47;;;;;;;21.73;5.20;;;7.50;47.90;;;;;;5040862;28;45993;-72
2023/04/27 05:28:13;;;;;;;13.03;5.43;;;7.60;48.00;;;;;;5041047;28;46564;-72
2023/04/27 05:30:39;;;;;;;8.50;6.10;;;7.70;48.00;;;;;;5041453;28;45888;-72
2023/04/27 05:33:05;;;;;;;9.00;5.60;;;7.80;47.90;;;;;;5042249;28;46453;-72
2023/04/27 05:35:31;;;;;;;11.27;6.00;;;7.90;47.90;;;;;;5040919;28;46285;-72
2023/04/27 05:37:56;;;;;;;9.10;5.60;;;8.00;47.60;;;;;;5042199;28;45838;-72
2023/04/27 05:40:23;;;;;;;10.07;6.13;;;8.00;47.70;;;;;;5044474;28;45846;-72
2023/04/27 05:42:48;;;;;;;7.60;5.30;;;8.20;47.70;;;;;;5039745;28;46354;-73
2023/04/27 05:45:14;;;;;;;8.67;5.70;;;8.30;47.30;;;;;;5040083;28;47134;-73
2023/04/27 05:47:40;;;;;;;13.50;6.27;;;8.50;46.90;;;;;;5039037;28;46450;-70
2023/04/27 05:50:07;;;;;;;11.33;6.10;;;8.70;46.50;;;;;;5040490;28;46439;-69
2023/04/27 05:52:33;;;;;;;9.20;5.97;;;8.70;46.40;;;;;;5039923;28;45927;-69
2023/04/27 05:54:58;;;;;;;15.70;8.20;;;8.80;47.60;;;;;;5040359;28;46560;-70
2023/04/27 05:57:25;;;;;;;9.77;6.50;;;8.90;46.10;;;;;;5041560;28;46496;-70
2023/04/27 05:59:52;;;;;;;13.67;7.43;;;9.00;46.00;;;;;;5038982;28;46457;-70
2023/04/27 06:02:18;;;;;;;15.77;8.70;;;9.10;45.80;;;;;;5033060;28;46433;-69
2023/04/27 06:04:45;;;;;;;24.97;11.90;;;9.20;45.50;;;;;;5035957;28;45980;-72
2023/04/27 06:07:12;;;;;;;10.17;5.83;;;9.30;45.30;;;;;;5037582;28;46439;-73
2023/04/27 06:09:38;;;;;;;9.43;5.43;;;9.40;45.00;;;;;;5038063;28;46431;-72
2023/04/27 06:12:05;;;;;;;10.10;5.20;;;9.50;44.60;;;;;;5036258;28;46412;-71
2023/04/27 06:14:32;;;;;;;13.93;6.10;;;9.50;44.40;;;;;;5032929;28;46400;-71
2023/04/27 06:16:57;;;;;;;27.53;13.33;;;9.60;44.30;;;;;;5036127;28;46469;-71
2023/04/27 06:19:23;;;;;;;9.43;6.07;;;9.70;44.00;;;;;;5039253;28;46553;-73
2023/04/27 06:21:50;;;;;;;11.67;6.83;;;9.80;43.90;;;;;;5038046;28;46090;-73
2023/04/27 06:24:15;;;;;;;12.90;6.07;;;9.90;43.80;;;;;;5036210;28;47122;-72
2023/04/27 06:26:41;;;;;;;19.93;6.73;;;9.90;43.50;;;;;;5039460;28;46381;-72
2023/04/27 06:29:07;;;;;;;12.67;6.70;;;10.10;42.40;;;;;;5032099;28;46825;-73
2023/04/27 06:31:33;;;;;;;11.07;6.40;;;10.10;42.20;;;;;;5037783;28;46471;-73
2023/04/27 06:33:59;;;;;;;11.77;6.90;;;10.10;42.30;;;;;;5038167;28;46467;-73
2023/04/27 06:36:28;;;;;;;14.80;6.63;;;10.20;42.20;;;;;;5037801;28;46461;-72
2023/04/27 06:38:55;;;;;;;21.30;6.67;;;10.20;42.40;;;;;;5036987;28;46544;-73
2023/04/27 06:41:21;;;;;;;15.80;6.73;;;10.40;42.10;;;;;;5038222;28;46605;-73
2023/04/27 06:43:47;;;;;;;13.50;6.50;;;10.60;41.80;;;;;;5040408;28;47363;-72
2023/04/27 06:46:13;;;;;;;16.53;7.00;;;10.70;41.50;;;;;;5038422;28;46475;-75
2023/04/27 06:48:39;;;;;;;11.77;6.57;;;10.70;41.30;;;;;;5030543;28;45823;-72
2023/04/27 06:51:05;;;;;;;15.20;7.20;;;10.80;41.20;;;;;;5035102;28;46611;-74
2023/04/27 06:53:31;;;;;;;9.73;5.60;;;11.00;40.90;;;;;;5033008;28;46309;-73
2023/04/27 06:55:57;;;;;;;12.47;6.37;;;11.10;40.30;;;;;;5036915;28;46394;-73
2023/04/27 06:58:23;;;;;;;11.00;6.27;;;11.20;40.20;;;;;;5035461;28;46476;-75
2023/04/27 07:00:48;;;;;;;14.77;6.60;;;11.30;39.60;;;;;;5037429;28;46610;-72
2023/04/27 07:03:14;;;;;;;9.73;5.70;;;11.40;39.70;;;;;;5038096;28;46518;-73
2023/04/27 07:05:40;;;;;;;13.57;6.00;;;11.50;39.80;;;;;;5039039;28;46433;-74
2023/04/27 07:08:06;;;;;;;13.83;5.80;;;11.40;39.70;;;;;;5038287;28;46442;-74
2023/04/27 07:10:31;;;;;;;8.23;5.37;;;11.40;39.70;;;;;;5035813;28;46525;-73
2023/04/27 07:12:57;;;;;;;20.97;6.17;;;11.50;39.70;;;;;;5037396;28;47176;-74
2023/04/27 07:15:23;;;;;;;12.23;5.93;;;11.60;39.00;;;;;;5038763;28;46425;-73
2023/04/27 07:17:51;;;;;;;11.30;5.47;;;11.80;38.80;;;;;;5037633;28;46669;-73
2023/04/27 07:20:17;;;;;;;13.67;6.10;;;11.90;38.30;;;;;;5038508;28;46418;-73
2023/04/27 07:22:43;;;;;;;9.20;5.10;;;12.20;37.80;;;;;;5038442;28;46608;-74
2023/04/27 07:25:09;;;;;;;6.80;4.87;;;12.40;37.10;;;;;;5037256;28;45866;-71
2023/04/27 07:27:34;;;;;;;13.93;5.20;;;12.60;36.70;;;;;;5038898;28;45946;-73
2023/04/27 07:30:00;;;;;;;9.77;5.27;;;12.70;37.40;;;;;;5039154;28;46501;-75
2023/04/27 07:32:26;;;;;;;11.90;5.50;;;12.80;36.40;;;;;;5036803;28;47046;-75
2023/04/27 07:34:54;;;;;;;13.10;5.17;;;12.90;36.20;;;;;;5038301;28;45950;-72
2023/04/27 07:37:20;;;;;;;11.97;6.03;;;13.00;36.00;;;;;;5037159;28;46428;-74
2023/04/27 07:39:48;;;;;;;11.67;6.70;;;13.30;35.80;;;;;;5038166;28;46350;-73
2023/04/27 07:42:14;;;;;;;15.00;6.57;;;13.50;35.40;;;;;;5035607;28;46483;-73
2023/04/27 07:44:41;;;;;;;9.90;6.33;;;13.80;34.90;;;;;;5037146;28;46420;-72
2023/04/27 07:47:07;;;;;;;11.60;7.60;;;13.90;34.30;;;;;;5037301;28;46499;-69
2023/04/27 07:49:33;;;;;;;11.13;5.87;;;14.10;34.10;;;;;;5038334;28;46661;-73
2023/04/27 07:52:00;;;;;;;13.03;5.23;;;14.30;33.80;;;;;;5037633;28;46134;-74
2023/04/27 07:54:26;;;;;;;12.77;5.30;;;14.50;33.30;;;;;;5035843;28;46408;-70
2023/04/27 07:56:52;;;;;;;8.53;6.40;;;14.70;33.20;;;;;;5037459;28;45790;-72
2023/04/27 07:59:18;;;;;;;10.83;6.97;;;14.90;32.90;;;;;;5036243;28;46363;-72
2023/04/27 08:01:43;;;;;;;10.17;6.00;;;15.00;32.80;;;;;;5034075;28;47367;-74
2023/04/27 08:04:11;;;;;;;13.00;6.37;;;15.10;32.20;;;;;;5033374;28;46435;-74
2023/04/27 08:06:36;;;;;;;8.53;4.70;;;15.30;32.10;;;;;;5033936;28;46508;-74
2023/04/27 08:09:03;;;;;;;10.80;6.33;;;15.40;31.80;;;;;;5037694;28;46361;-74
2023/04/27 08:11:29;;;;;;;9.83;6.30;;;15.50;31.10;;;;;;5037447;28;46973;-74
2023/04/27 08:13:54;;;;;;;11.37;6.17;;;15.60;30.20;;;;;;5036939;28;46329;-75
2023/04/27 08:16:20;;;;;;;10.00;5.93;;;16.00;30.30;;;;;;5034331;28;46474;-75
2023/04/27 08:18:46;;;;;;;10.17;6.30;;;16.20;30.60;;;;;;5037701;28;46489;-74
2023/04/27 08:21:11;;;;;;;10.53;6.00;;;16.20;30.00;;;;;;5035143;28;46282;-76
2023/04/27 08:23:37;;;;;;;10.10;6.43;;;16.30;30.00;;;;;;5034675;28;46440;-75
2023/04/27 08:26:03;;;;;;;14.30;5.73;;;16.50;29.60;;;;;;5037226;28;46359;-76
2023/04/27 08:28:28;;;;;;;11.63;6.17;;;16.70;29.10;;;;;;5035967;28;45921;-75
2023/04/27 08:30:54;;;;;;;14.43;5.80;;;16.90;28.40;;;;;;5035807;28;46913;-76
2023/04/27 08:33:20;;;;;;;10.07;5.53;;;16.90;27.70;;;;;;5032781;28;46502;-75
2023/04/27 08:35:46;;;;;;;9.57;6.07;;;16.80;27.10;;;;;;5032567;28;46471;-76
2023/04/27 08:38:11;;;;;;;13.63;6.67;;;16.70;27.50;;;;;;5036766;28;46780;-75
2023/04/27 08:40:44;;;;;;;13.07;6.70;;;16.80;27.40;;;;;;5034674;28;46447;-77
2023/04/27 08:43:10;;;;;;;15.73;6.50;;;17.20;26.70;;;;;;5034834;28;46703;-74
2023/04/27 08:45:36;;;;;;;11.83;6.57;;;17.40;26.00;;;;;;5038370;28;46487;-78
2023/04/27 08:48:02;;;;;;;12.10;6.47;;;17.30;25.50;;;;;;5039777;28;46400;-74
2023/04/27 08:50:28;;;;;;;12.87;6.47;;;17.50;25.50;;;;;;5038661;28;46317;-76
2023/04/27 08:52:54;;;;;;;12.67;6.77;;;17.40;25.30;;;;;;5039433;28;46211;-73
2023/04/27 08:55:20;;;;;;;13.27;6.90;;;17.40;25.00;;;;;;5038588;28;46347;-73
2023/04/27 08:57:59;;;;;;;9.70;6.10;;;17.30;24.90;;;;;;5039062;28;46420;-74
2023/04/27 09:00:26;;;;;;;10.13;5.70;;;17.20;24.20;;;;;;5038009;28;46710;-78
2023/04/27 09:02:51;;;;;;;12.27;7.10;;;17.30;24.20;;;;;;5036656;28;46318;-76
2023/04/27 09:05:19;;;;;;;10.90;6.10;;;17.40;23.90;;;;;;5039759;28;46512;-74
2023/04/27 09:08:07;;;;;;;11.17;6.47;;;17.40;23.60;;;;;;5036375;28;46713;-73
2023/04/27 09:10:50;;;;;;;16.07;6.33;;;17.10;23.80;;;;;;5035781;28;47470;-73
2023/04/27 09:13:16;;;;;;;9.27;5.87;;;17.00;23.90;;;;;;5035670;28;46448;-75
2023/04/27 09:15:43;;;;;;;11.87;6.00;;;16.70;24.60;;;;;;5037454;28;46592;-72
2023/04/27 09:18:18;;;;;;;9.43;5.90;;;16.30;24.80;;;;;;5037823;28;45885;-73
2023/04/27 09:20:48;;;;;;;11.53;4.83;;;16.00;24.80;;;;;;5038838;28;46951;-72
2023/04/27 09:23:32;;;;;;;7.30;4.57;;;16.00;25.00;;;;;;5038371;28;46491;-71
2023/04/27 09:26:04;;;;;;;8.60;5.37;;;15.90;23.70;;;;;;5038517;28;46382;-73
2023/04/27 09:28:31;;;;;;;10.60;5.60;;;16.10;23.40;;;;;;5038830;28;46436;-73
2023/04/27 09:31:01;;;;;;;13.63;5.47;;;16.20;22.30;;;;;;5037535;28;46423;-72
2023/04/27 09:33:29;;;;;;;10.23;5.57;;;16.30;22.10;;;;;;5037627;28;46431;-73
2023/04/27 09:35:56;;;;;;;7.67;4.60;;;16.40;22.10;;;;;;5036024;28;46406;-72
2023/04/27 09:38:22;;;;;;;11.70;5.23;;;16.60;21.80;;;;;;5038174;28;46553;-75
2023/04/27 09:40:50;;;;;;;9.87;5.43;;;16.70;21.10;;;;;;5036255;28;47148;-73
2023/04/27 09:43:16;;;;;;;10.63;5.13;;;16.90;20.20;;;;;;5038221;28;46418;-72
2023/04/27 09:45:42;;;;;;;9.10;5.70;;;17.00;20.30;;;;;;5038711;28;46364;-73
2023/04/27 09:48:09;;;;;;;7.97;5.00;;;17.00;20.30;;;;;;5039279;28;46865;-71
2023/04/27 09:50:41;;;;;;;11.60;5.60;;;17.20;20.50;;;;;;5037763;28;46872;-72
2023/04/27 09:53:13;;;;;;;11.43;4.80;;;17.60;19.40;;;;;;5036134;28;46374;-74
2023/04/27 09:55:47;;;;;;;10.83;4.80;;;18.00;19.40;;;;;;5038793;28;46547;-71
2023/04/27 09:58:46;;;;;;;9.70;5.27;;;18.00;19.60;;;;;;5037598;28;46433;-73
2023/04/27 10:01:48;;;;;;;7.40;3.50;;;18.00;19.50;;;;;;5036310;28;47292;-71
2023/04/27 10:04:45;;;;;;;6.20;3.90;;;17.60;19.40;;;;;;5038217;28;46303;-72
2023/04/27 10:07:13;;;;;;;8.47;4.43;;;17.40;20.30;;;;;;5033900;28;46432;-73
2023/04/27 10:09:46;;;;;;;10.33;4.40;;;17.50;20.40;;;;;;5036992;28;46518;-71
2023/04/27 10:12:25;;;;;;;8.83;3.73;;;17.60;19.70;;;;;;5034251;28;47143;-74
2023/04/27 10:14:55;;;;;;;8.03;4.17;;;17.50;18.80;;;;;;5036632;28;46509;-75
2023/04/27 10:17:31;;;;;;;7.47;4.73;;;17.40;18.70;;;;;;5038544;28;45878;-74
2023/04/27 10:20:08;;;;;;;9.67;3.90;;;17.50;17.80;;;;;;5037714;28;46404;-75
2023/04/27 10:22:48;;;;;;;7.27;4.50;;;17.90;17.70;;;;;;5036447;28;46537;-75
2023/04/27 10:25:21;;;;;;;7.77;4.17;;;18.30;17.10;;;;;;5038511;28;46495;-74
2023/04/27 10:27:55;;;;;;;6.40;4.47;;;18.50;17.30;;;;;;5037929;28;46442;-73
2023/04/27 10:30:24;;;;;;;6.77;4.20;;;18.70;16.90;;;;;;5036486;28;46487;-75
2023/04/27 10:32:55;;;;;;;7.63;4.27;;;18.70;16.90;;;;;;5035845;28;46495;-72
2023/04/27 10:35:22;;;;;;;7.77;4.53;;;18.60;16.80;;;;;;5038599;28;46424;-73
2023/04/27 10:37:48;;;;;;;11.43;5.03;;;18.30;15.20;;;;;;5036777;28;46377;-74
2023/04/27 10:40:18;;;;;;;9.47;4.00;;;17.90;14.40;;;;;;5038611;28;46497;-73
2023/04/27 10:42:45;;;;;;;13.17;3.97;;;17.70;15.30;;;;;;5035321;28;46608;-72
2023/04/27 10:45:14;;;;;;;9.53;4.20;;;17.70;15.40;;;;;;5038412;28;46434;-72
2023/04/27 10:47:46;;;;;;;6.97;3.90;;;17.70;15.50;;;;;;5034632;28;46442;-71
2023/04/27 10:50:13;;;;;;;8.03;3.80;;;18.00;15.40;;;;;;5039101;28;46392;-75
2023/04/27 10:52:42;;;;;;;8.70;4.30;;;18.10;15.20;;;;;;5036794;28;47183;-72
2023/04/27 10:55:19;;;;;;;6.87;3.50;;;18.00;15.30;;;;;;5039678;28;45837;-73
2023/04/27 10:57:55;;;;;;;9.40;3.63;;;18.00;15.10;;;;;;5038182;28;45865;-74
2023/04/27 11:00:25;;;;;;;8.53;3.47;;;17.90;15.40;;;;;;5038192;28;46452;-72
2023/04/27 11:02:52;;;;;;;8.30;3.67;;;17.80;15.80;;;;;;5039272;28;46912;-73
2023/04/27 11:05:21;;;;;;;5.97;3.77;;;17.80;15.90;;;;;;5036415;28;46510;-73
2023/04/27 11:07:47;;;;;;;8.00;4.10;;;17.80;15.50;;;;;;5036039;28;46448;-72
2023/04/27 11:10:20;;;;;;;8.20;4.57;;;17.90;15.40;;;;;;5041559;28;46365;-72
2023/04/27 11:12:46;;;;;;;7.50;4.17;;;18.00;15.00;;;;;;5041578;28;46464;-72
2023/04/27 11:15:13;;;;;;;10.37;3.97;;;18.20;15.20;;;;;;5038214;28;46460;-73
2023/04/27 11:17:39;;;;;;;10.47;3.27;;;18.80;14.50;;;;;;5035674;28;45826;-72
2023/04/27 11:20:09;;;;;;;7.80;3.60;;;19.00;13.50;;;;;;5037937;28;46531;-73
2023/04/27 11:22:44;;;;;;;7.07;3.97;;;19.00;13.40;;;;;;5035030;28;46602;-70
2023/04/27 11:25:10;;;;;;;7.70;3.87;;;19.20;13.10;;;;;;5036723;28;46424;-71
2023/04/27 11:27:38;;;;;;;6.70;3.67;;;19.40;13.10;;;;;;5037466;28;46669;-70
2023/04/27 11:30:04;;;;;;;7.20;3.40;;;19.50;13.10;;;;;;5037633;28;45923;-72
2023/04/27 11:32:30;;;;;;;8.57;4.00;;;19.30;13.10;;;;;;5035414;28;46264;-68
2023/04/27 11:34:56;;;;;;;8.77;4.33;;;19.10;13.70;;;;;;5035895;28;46384;-67
2023/04/27 11:37:24;;;;;;;7.47;3.60;;;19.00;13.70;;;;;;5036002;28;46435;-71
2023/04/27 11:39:50;;;;;;;5.07;3.13;;;19.20;14.10;;;;;;5033964;28;45980;-70
2023/04/27 11:42:17;;;;;;;5.50;3.17;;;19.40;14.40;;;;;;5035084;28;46514;-68
2023/04/27 11:44:49;;;;;;;6.23;3.20;;;19.40;14.10;;;;;;5035132;28;46575;-69
2023/04/27 11:47:18;;;;;;;10.77;3.10;;;19.60;14.20;;;;;;5036828;28;46756;-69
2023/04/27 11:49:47;;;;;;;10.87;3.80;;;19.80;14.20;;;;;;5037633;28;46733;-69
2023/04/27 11:52:14;;;;;;;4.67;2.57;;;20.20;14.20;;;;;;5036686;28;46407;-69
2023/04/27 11:54:46;;;;;;;10.13;3.60;;;20.00;14.60;;;;;;5034449;28;46866;-71
2023/04/27 11:57:12;;;;;;;4.87;3.27;;;19.40;15.10;;;;;;5037361;28;46348;-67
2023/04/27 11:59:38;;;;;;;8.03;3.40;;;19.20;15.40;;;;;;5034736;28;46583;-68
2023/04/27 12:02:03;;;;;;;5.33;3.30;;;19.30;15.20;;;;;;5036071;28;46431;-70
2023/04/27 12:04:30;;;;;;;8.47;2.53;;;19.50;14.10;;;;;;5032712;28;45774;-66
2023/04/27 12:06:56;;;;;;;5.63;2.83;;;19.50;14.10;;;;;;5035936;28;46420;-67
2023/04/27 12:09:22;;;;;;;5.27;2.97;;;19.50;14.40;;;;;;5035251;28;46049;-70
2023/04/27 12:11:48;;;;;;;5.43;2.70;;;19.50;14.80;;;;;;5036846;28;46201;-69
2023/04/27 12:14:13;;;;;;;5.40;2.60;;;19.00;15.10;;;;;;5037160;28;46808;-71
2023/04/27 12:16:39;;;;;;;4.93;2.53;;;18.70;15.50;;;;;;5034220;28;45832;-71
2023/04/27 12:19:05;;;;;;;7.27;2.70;;;18.70;16.10;;;;;;5037487;28;46398;-70
2023/04/27 12:21:31;;;;;;;5.73;2.80;;;18.80;16.10;;;;;;5036538;28;46944;-71
2023/04/27 12:23:56;;;;;;;5.70;2.73;;;18.70;16.10;;;;;;5035312;28;46419;-72
2023/04/27 12:26:22;;;;;;;6.33;2.77;;;18.70;16.10;;;;;;5035149;28;46472;-68
2023/04/27 12:28:48;;;;;;;7.03;2.90;;;18.80;16.10;;;;;;5036016;28;46653;-69
2023/04/27 12:31:15;;;;;;;5.33;3.03;;;18.70;15.70;;;;;;5041679;28;46292;-70
2023/04/27 12:33:41;;;;;;;5.80;3.00;;;18.80;15.60;;;;;;5034727;28;46457;-68
2023/04/27 12:36:07;;;;;;;9.13;3.30;;;18.70;14.80;;;;;;5037133;28;46522;-69
2023/04/27 12:38:32;;;;;;;6.90;3.17;;;18.80;14.70;;;;;;5033602;28;46393;-68
2023/04/27 12:41:01;;;;;;;5.30;2.50;;;19.10;14.30;;;;;;5035927;28;46111;-69
2023/04/27 12:43:27;;;;;;;8.00;2.90;;;19.60;13.70;;;;;;5034328;28;46399;-70
2023/04/27 12:45:52;;;;;;;6.83;2.97;;;19.70;13.50;;;;;;5032560;28;45856;-70
2023/04/27 12:48:18;;;;;;;5.40;2.80;;;19.50;13.10;;;;;;5037037;28;45956;-70